Time;durP1;ratioP1;P1;durP2;ratioP2;P2;SDS_P1;SDS_P2;PMS_P1;PMS_P2;Temp;Humidity;BMP_temperature;BMP_pressure;BME280_temperature;BME280_humidity;BME280_pressure;Samples;Min_cycle;Max_cycle;Signal;HPM_P1;HPM_P2
2021/09/21 00:00:42;;;;;;;4.00;1.73;;;;;;;22.02;37.34;102329.22;4999932;28;20048;-61
2021/09/21 00:03:07;;;;;;;2.17;1.67;;;;;;;22.04;37.92;102340.81;4995260;28;20030;-61
2021/09/21 00:05:33;;;;;;;2.35;1.40;;;;;;;22.01;37.49;102341.13;5000901;28;20069;-61
2021/09/21 00:07:58;;;;;;;2.13;1.77;;;;;;;21.99;37.48;102340.47;5010412;28;20033;-61
2021/09/21 00:10:24;;;;;;;2.00;1.38;;;;;;;21.98;37.05;102346.94;5013082;28;20057;-61
2021/09/21 00:12:49;;;;;;;2.85;1.20;;;;;;;21.98;38.05;102352.38;5000848;28;20046;-60
2021/09/21 00:15:16;;;;;;;3.38;1.45;;;;;;;21.98;37.73;102357.84;4993804;28;20448;-60
2021/09/21 00:17:42;;;;;;;3.33;1.40;;;;;;;21.96;38.24;102354.44;4994246;28;20033;-61
2021/09/21 00:20:09;;;;;;;2.30;1.30;;;;;;;21.94;37.32;102362.78;4994459;28;20030;-61
2021/09/21 00:22:35;;;;;;;4.47;1.60;;;;;;;21.92;37.37;102366.69;5003973;28;20026;-61
2021/09/21 00:25:00;;;;;;;2.97;1.73;;;;;;;21.90;37.35;102371.47;5014017;28;20021;-60
2021/09/21 00:27:26;;;;;;;3.00;1.23;;;;;;;21.89;37.40;102364.28;5013385;28;20033;-60
2021/09/21 00:29:51;;;;;;;2.55;1.60;;;;;;;21.86;37.91;102361.88;5013990;28;20029;-60
2021/09/21 00:32:19;;;;;;;3.28;1.20;;;;;;;21.83;37.80;102367.69;5014004;28;20520;-61
2021/09/21 00:34:45;;;;;;;4.15;1.65;;;;;;;21.81;37.75;102367.81;5014263;28;20367;-60
2021/09/21 00:37:13;;;;;;;2.08;1.30;;;;;;;21.81;37.76;102362.38;5013836;28;20442;-60
2021/09/21 00:39:39;;;;;;;3.03;1.80;;;;;;;21.80;37.90;102363.38;5013846;28;20033;-61
2021/09/21 00:42:05;;;;;;;2.78;1.48;;;;;;;21.79;37.34;102363.56;5014151;28;20484;-60
2021/09/21 00:44:31;;;;;;;2.88;1.63;;;;;;;21.82;37.85;102366.81;4997392;28;20030;-60
2021/09/21 00:46:57;;;;;;;2.35;1.58;;;;;;;21.81;37.75;102362.38;4994406;28;20077;-60
2021/09/21 00:49:22;;;;;;;3.17;1.95;;;;;;;21.82;38.00;102363.22;4994552;28;20028;-60
2021/09/21 00:51:48;;;;;;;2.50;1.50;;;;;;;21.81;38.22;102369.69;4996800;28;20028;-60
2021/09/21 00:54:13;;;;;;;4.30;1.48;;;;;;;21.78;38.10;102373.59;4998171;28;20104;-61
2021/09/21 00:56:38;;;;;;;3.75;1.67;;;;;;;21.81;38.59;102378.72;4998095;28;20068;-60
2021/09/21 00:59:04;;;;;;;2.33;2.05;;;;;;;21.81;37.67;102377.88;4996534;28;20105;-60
2021/09/21 01:01:30;;;;;;;2.38;1.60;;;;;;;21.79;38.36;102369.00;5000828;28;20038;-60
2021/09/21 01:03:55;;;;;;;1.88;1.63;;;;;;;21.79;38.65;102369.00;5017640;28;20041;-60
2021/09/21 01:06:20;;;;;;;5.43;2.38;;;;;;;21.79;38.50;102366.28;5016306;28;20505;-60
2021/09/21 01:08:46;;;;;;;2.97;2.13;;;;;;;21.77;38.10;102365.59;5017844;28;20402;-60
2021/09/21 01:11:12;;;;;;;3.15;1.80;;;;;;;21.76;38.43;102372.06;5017638;28;20026;-60
2021/09/21 01:13:38;;;;;;;3.65;1.80;;;;;;;21.74;38.52;102374.97;5033072;28;20041;-60
2021/09/21 01:16:04;;;;;;;3.88;1.52;;;;;;;21.74;38.77;102374.09;5018060;28;20486;-60
2021/09/21 01:18:30;;;;;;;5.90;1.95;;;;;;;21.72;39.25;102367.97;5000278;28;20030;-61
2021/09/21 01:21:07;;;;;;;3.80;1.83;;;;;;;21.71;38.83;102371.72;4997856;28;20033;-61
2021/09/21 01:23:43;;;;;;;4.13;1.27;;;;;;;21.70;39.27;102370.84;4996585;28;20125;-61
2021/09/21 01:26:09;;;;;;;3.00;1.85;;;;;;;21.70;38.62;102375.44;4997667;28;20395;-60
2021/09/21 01:28:34;;;;;;;2.50;1.98;;;;;;;21.67;39.13;102370.31;4997505;28;20030;-61
2021/09/21 01:31:00;;;;;;;5.63;1.80;;;;;;;21.68;38.95;102382.94;4997487;28;20033;-60
2021/09/21 01:33:25;;;;;;;3.97;2.03;;;;;;;21.67;38.12;102375.75;5013910;28;20030;-60
2021/09/21 01:35:50;;;;;;;2.40;1.50;;;;;;;21.61;39.10;102376.44;5017527;28;20025;-60
2021/09/21 01:38:16;;;;;;;5.40;2.10;;;;;;;21.64;39.16;102381.53;5016760;28;20029;-60
2021/09/21 01:40:42;;;;;;;3.65;2.22;;;;;;;21.62;38.61;102378.13;5017067;28;20025;-60
2021/09/21 01:43:07;;;;;;;4.63;1.35;;;;;;;21.62;38.52;102380.88;5017100;28;20056;-61
2021/09/21 01:45:32;;;;;;;3.03;1.90;;;;;;;21.60;39.17;102391.09;5017317;28;20026;-61
2021/09/21 01:47:59;;;;;;;3.78;1.90;;;;;;;21.59;38.83;102383.91;5000562;28;20025;-60
2021/09/21 01:53:36;;;;;;;3.47;1.92;;;;;;;21.55;38.64;102393.47;4977193;28;20034;-60
2021/09/21 02:01:24;;;;;;;3.50;1.50;;;;;;;21.50;39.04;102395.81;4977867;28;20097;-59
2021/09/21 02:03:54;;;;;;;3.97;2.40;;;;;;;21.44;38.58;102381.78;4975889;28;20033;-60
2021/09/21 02:06:23;;;;;;;3.05;1.75;;;;;;;21.51;38.72;102392.06;5017048;28;20073;-60
2021/09/21 02:08:48;;;;;;;5.10;2.25;;;;;;;21.50;39.67;102390.38;5016601;28;20392;-60
2021/09/21 02:11:14;;;;;;;6.72;2.42;;;;;;;21.48;39.57;102394.09;5016699;28;20057;-60
2021/09/21 02:13:40;;;;;;;2.58;1.92;;;;;;;21.46;39.83;102401.59;5017145;28;20052;-60
2021/09/21 02:16:06;;;;;;;7.82;2.00;;;;;;;21.46;39.24;102401.59;5016765;28;20026;-60
2021/09/21 02:18:31;;;;;;;4.13;2.00;;;;;;;21.45;39.35;102391.69;5017049;28;20029;-60
2021/09/21 02:20:56;;;;;;;3.65;2.50;;;;;;;21.46;39.25;102403.47;5016594;28;20109;-61
2021/09/21 02:23:22;;;;;;;3.30;2.00;;;;;;;21.45;39.60;102394.41;5001042;28;20030;-60
2021/09/21 02:25:47;;;;;;;2.90;2.15;;;;;;;21.46;39.43;102392.56;4997018;28;20491;-61
2021/09/21 02:28:13;;;;;;;5.00;3.15;;;;;;;21.43;38.89;102385.56;4995915;28;20034;-60
2021/09/21 02:30:38;;;;;;;3.42;2.63;;;;;;;21.43;39.74;102384.69;4997262;28;20604;-60
2021/09/21 02:33:03;;;;;;;2.78;2.53;;;;;;;21.39;39.33;102378.69;4996634;28;20360;-60
2021/09/21 02:35:29;;;;;;;3.45;1.83;;;;;;;21.40;39.74;102385.88;4996878;28;20128;-60
2021/09/21 02:37:54;;;;;;;2.63;2.38;;;;;;;21.39;39.65;102380.56;5007681;28;20029;-61
2021/09/21 02:40:20;;;;;;;2.80;1.67;;;;;;;21.37;39.77;102385.34;5015392;28;20026;-60
2021/09/21 02:42:45;;;;;;;2.40;1.90;;;;;;;21.33;40.06;102373.88;5015665;28;20359;-60
2021/09/21 02:45:12;;;;;;;2.85;1.95;;;;;;;21.36;39.44;102380.88;5016285;28;20022;-60
2021/09/21 02:47:37;;;;;;;2.85;2.00;;;;;;;21.34;39.43;102380.19;5016230;28;20076;-61
2021/09/21 02:50:05;;;;;;;4.75;1.80;;;;;;;21.31;39.84;102381.38;5016472;28;20422;-60
2021/09/21 02:52:30;;;;;;;5.85;2.40;;;;;;;21.37;39.69;102388.06;5008910;28;20057;-60
2021/09/21 02:54:55;;;;;;;2.85;1.98;;;;;;;21.37;39.38;102397.09;4995697;28;20403;-60
2021/09/21 02:57:21;;;;;;;6.90;2.38;;;;;;;21.36;39.81;102389.94;4997231;28;20026;-60
2021/09/21 02:59:46;;;;;;;5.75;2.42;;;;;;;21.36;39.53;102389.94;4996211;28;20049;-60
2021/09/21 03:02:12;;;;;;;4.38;2.60;;;;;;;21.33;39.63;102379.34;4996493;28;20029;-60
2021/09/21 03:04:41;;;;;;;2.80;1.77;;;;;;;21.37;39.42;102394.38;4995532;28;20050;-60
2021/09/21 03:07:13;;;;;;;3.88;2.33;;;;;;;21.33;40.23;102387.53;4999595;28;20060;-60
2021/09/21 03:17:37;;;;;;;4.57;2.45;;;;;;;21.24;40.25;102385.78;5016038;28;20514;-60
2021/09/21 03:20:03;;;;;;;2.70;2.08;;;;;;;21.19;40.28;102377.22;5015352;28;20041;-60
2021/09/21 03:22:29;;;;;;;10.10;2.67;;;;;;;21.25;39.80;102387.47;5010561;28;20494;-60
2021/09/21 03:24:55;;;;;;;5.07;2.10;;;;;;;21.24;40.35;102396.69;4996547;28;20360;-61
2021/09/21 03:27:22;;;;;;;2.78;1.95;;;;;;;21.25;39.97;102394.78;4996309;28;20022;-60
2021/09/21 03:29:47;;;;;;;2.95;2.30;;;;;;;21.19;39.73;102393.56;4996403;28;20022;-60
2021/09/21 03:32:13;;;;;;;7.00;2.90;;;;;;;21.21;39.96;102402.47;4995984;28;20034;-60
2021/09/21 03:34:39;;;;;;;5.75;2.20;;;;;;;21.19;39.66;102401.75;4996119;28;20019;-60
2021/09/21 03:37:09;;;;;;;4.25;2.25;;;;;;;21.18;39.71;102413.69;4996195;28;20022;-60
2021/09/21 03:39:35;;;;;;;3.70;2.17;;;;;;;21.18;40.18;102421.84;4996336;28;20165;-60
2021/09/21 03:42:00;;;;;;;3.97;2.25;;;;;;;21.17;40.03;102422.00;4995145;28;20054;-60
2021/09/21 03:44:28;;;;;;;3.78;2.22;;;;;;;21.17;40.32;102436.47;5011492;28;20032;-61
2021/09/21 03:46:54;;;;;;;3.75;2.17;;;;;;;21.16;40.61;102437.50;5015939;28;20025;-60
2021/09/21 03:49:20;;;;;;;5.00;2.55;;;;;;;21.13;40.22;102437.84;5015486;28;20033;-60
2021/09/21 03:51:45;;;;;;;4.30;2.42;;;;;;;21.15;40.27;102449.44;5014250;28;20092;-60
2021/09/21 03:54:11;;;;;;;4.90;2.45;;;;;;;21.14;40.09;102453.16;5015142;28;20110;-60
2021/09/21 03:56:37;;;;;;;7.85;2.85;;;;;;;21.14;40.07;102453.16;5015402;28;20029;-60
2021/09/21 03:59:06;;;;;;;3.55;2.13;;;;;;;21.14;40.31;102455.03;5014397;28;20026;-60
2021/09/21 04:01:32;;;;;;;4.72;2.55;;;;;;;21.11;40.73;102458.91;5011937;28;20042;-61
2021/09/21 04:03:58;;;;;;;4.45;2.17;;;;;;;21.08;40.65;102451.06;4996020;28;20034;-60
2021/09/21 04:06:23;;;;;;;7.75;2.70;;;;;;;21.10;40.21;102450.91;4995558;28;20037;-60
2021/09/21 04:08:52;;;;;;;4.72;2.45;;;;;;;21.11;40.44;102471.69;4995902;28;20038;-60
2021/09/21 04:11:18;;;;;;;3.80;2.30;;;;;;;21.09;40.27;102468.28;4996155;28;20041;-60
2021/09/21 04:13:43;;;;;;;11.07;3.50;;;;;;;21.05;40.78;102464.97;5011261;28;20038;-60
2021/09/21 04:16:08;;;;;;;3.10;2.33;;;;;;;21.09;40.19;102474.59;4995824;28;20066;-60
2021/09/21 04:18:34;;;;;;;4.05;2.40;;;;;;;21.08;40.91;102481.03;4995716;28;20452;-60
2021/09/21 04:20:59;;;;;;;6.10;2.65;;;;;;;21.08;40.36;102483.75;4994430;28;20100;-60
2021/09/21 04:23:25;;;;;;;5.10;2.40;;;;;;;21.07;40.22;102475.72;4995980;28;20458;-60
2021/09/21 04:25:50;;;;;;;4.35;2.63;;;;;;;21.04;41.01;102473.31;4993933;28;20106;-60
2021/09/21 04:28:16;;;;;;;4.03;2.75;;;;;;;21.06;40.97;102480.31;4996484;28;20089;-60
2021/09/21 04:30:43;;;;;;;4.15;2.25;;;;;;;21.08;40.81;102483.75;4994824;28;20026;-60
2021/09/21 04:33:09;;;;;;;4.25;2.22;;;;;;;21.07;40.81;102492.97;4995586;28;20510;-60
2021/09/21 04:35:36;;;;;;;4.85;2.80;;;;;;;21.06;40.86;102502.09;4994813;28;20085;-60
2021/09/21 04:38:02;;;;;;;7.65;2.90;;;;;;;21.06;40.82;102496.66;4995877;28;20050;-60
2021/09/21 04:40:27;;;;;;;5.40;2.60;;;;;;;21.07;40.86;102500.25;4995256;28;20475;-60
2021/09/21 04:42:52;;;;;;;3.97;2.42;;;;;;;21.07;40.63;102500.25;4998413;28;20340;-60
2021/09/21 04:45:18;;;;;;;3.88;2.28;;;;;;;21.05;40.91;102502.28;5014395;28;20030;-60
2021/09/21 04:47:43;;;;;;;3.55;2.65;;;;;;;21.01;40.66;102501.72;5030097;28;20030;-60
2021/09/21 04:50:09;;;;;;;3.08;2.33;;;;;;;21.07;41.26;102513.88;5013840;28;20030;-60
2021/09/21 04:52:34;;;;;;;5.30;2.53;;;;;;;21.07;40.81;102527.50;5014752;28;20034;-60
2021/09/21 04:54:59;;;;;;;9.55;2.63;;;;;;;21.04;40.81;102525.94;5015314;28;20026;-60
2021/09/21 04:57:25;;;;;;;6.35;2.78;;;;;;;21.02;41.03;102522.50;5014914;28;20029;-61
2021/09/21 04:59:50;;;;;;;3.95;2.60;;;;;;;21.02;41.63;102527.94;4995961;28;20046;-60
2021/09/21 05:02:16;;;;;;;8.30;3.40;;;;;;;21.02;41.19;102514.31;4995215;28;20026;-60
2021/09/21 05:04:41;;;;;;;3.40;2.60;;;;;;;20.99;40.91;102506.50;4994909;28;20043;-60
2021/09/21 05:07:06;;;;;;;4.53;2.95;;;;;;;21.00;40.74;102519.09;4995231;28;20034;-60
2021/09/21 05:09:32;;;;;;;7.78;3.15;;;;;;;20.97;41.11;102535.72;4995223;28;20034;-61
2021/09/21 05:11:57;;;;;;;9.10;3.20;;;;;;;20.97;41.18;102543.06;4995736;28;20026;-60
2021/09/21 05:14:22;;;;;;;6.50;2.65;;;;;;;20.96;41.31;102547.66;4995436;28;20029;-61
2021/09/21 05:16:48;;;;;;;4.53;3.03;;;;;;;20.97;41.48;102548.50;4996025;28;20550;-60
2021/09/21 05:19:13;;;;;;;3.95;2.80;;;;;;;20.96;41.28;102544.94;4995805;28;20383;-60
2021/09/21 05:21:40;;;;;;;4.47;3.03;;;;;;;20.95;41.41;102542.34;4995644;28;20030;-60
2021/09/21 05:24:05;;;;;;;10.02;2.75;;;;;;;20.97;41.33;102548.50;5010227;28;20029;-61
2021/09/21 05:26:31;;;;;;;5.20;3.15;;;;;;;20.95;41.07;102554.13;5015224;28;20025;-60
2021/09/21 05:28:56;;;;;;;5.32;3.30;;;;;;;20.92;40.57;102547.13;5015955;28;20026;-60
2021/09/21 05:31:22;;;;;;;8.05;3.00;;;;;;;20.93;40.99;102545.25;5015662;28;20106;-60
2021/09/21 05:33:47;;;;;;;7.55;2.88;;;;;;;20.93;41.12;102553.44;5015378;28;20076;-60
2021/09/21 05:36:12;;;;;;;3.47;2.38;;;;;;;20.91;40.71;102552.69;5015418;28;20029;-60
2021/09/21 05:38:38;;;;;;;5.70;2.90;;;;;;;20.91;41.22;102547.25;5011834;28;20023;-60
2021/09/21 05:41:03;;;;;;;6.22;3.03;;;;;;;20.88;41.13;102548.41;4995574;28;20459;-60
2021/09/21 05:43:29;;;;;;;9.85;4.47;;;;;;;20.86;41.33;102547.72;4999111;28;20046;-60
2021/09/21 05:45:54;;;;;;;6.82;2.72;;;;;;;20.81;41.29;102541.88;4999276;28;20027;-60
2021/09/21 05:48:19;;;;;;;5.00;3.20;;;;;;;20.75;41.38;102530.75;4999376;28;20030;-60
2021/09/21 05:50:45;;;;;;;5.97;3.10;;;;;;;20.77;41.09;102545.09;4998953;28;20395;-60
2021/09/21 05:53:10;;;;;;;5.68;2.67;;;;;;;20.73;40.93;102560.00;4983148;28;20479;-60
2021/09/21 05:55:35;;;;;;;9.23;3.15;;;;;;;20.73;41.06;102592.69;4978257;28;20460;-60
2021/09/21 05:58:01;;;;;;;8.38;3.10;;;;;;;20.73;41.05;102590.84;4980301;28;20027;-60
2021/09/21 06:00:26;;;;;;;6.85;3.45;;;;;;;20.76;41.39;102595.97;4993904;28;20129;-61
2021/09/21 06:02:52;;;;;;;7.80;3.05;;;;;;;20.84;40.80;102596.06;4997768;28;20053;-60
2021/09/21 06:05:17;;;;;;;9.40;3.40;;;;;;;20.89;40.71;102595.59;4999039;28;20038;-60
2021/09/21 06:07:50;;;;;;;7.45;3.13;;;;;;;20.95;41.48;102600.44;4997797;28;20027;-60
2021/09/21 06:10:21;;;;;;;6.13;3.65;;;;;;;20.97;41.44;102584.78;4998169;28;20041;-60
2021/09/21 06:12:46;;;;;;;7.13;2.90;;;;;;;21.04;40.99;102596.81;4997990;28;20085;-60
2021/09/21 06:15:14;;;;;;;4.15;3.10;;;;;;;21.14;41.18;102607.66;4997194;28;20022;-60
2021/09/21 06:17:39;;;;;;;4.50;2.90;;;;;;;21.39;40.43;102607.75;4998336;28;20030;-60
2021/09/21 06:20:05;;;;;;;5.78;2.97;;;;;;;21.54;40.71;102604.47;4997548;28;20398;-61
2021/09/21 06:22:31;;;;;;;4.55;3.10;;;;;;;21.78;40.56;102616.44;5010285;28;20069;-60
2021/09/21 06:24:57;;;;;;;4.88;3.30;;;;;;;21.91;40.04;102607.88;5017012;28;20057;-60
2021/09/21 06:27:22;;;;;;;7.15;3.83;;;;;;;22.12;40.77;102622.00;5015107;28;20018;-61
2021/09/21 06:29:48;;;;;;;10.65;2.97;;;;;;;22.31;40.54;102615.44;5015264;28;20026;-60
2021/09/21 06:32:13;;;;;;;4.50;3.35;;;;;;;22.44;39.89;102605.81;5016667;28;20120;-61
2021/09/21 06:34:39;;;;;;;9.85;3.15;;;;;;;22.51;40.06;102611.47;5016437;28;20057;-61
2021/09/21 06:37:04;;;;;;;7.10;3.15;;;;;;;22.57;39.66;102611.66;4999741;28;20022;-61
2021/09/21 06:39:30;;;;;;;7.45;3.67;;;;;;;22.57;40.02;102611.66;4995535;28;20030;-61
2021/09/21 06:41:55;;;;;;;7.20;3.42;;;;;;;22.60;40.45;102621.41;4995272;28;20026;-61
2021/09/21 06:44:21;;;;;;;5.30;3.20;;;;;;;22.61;39.85;102620.41;4996681;28;20101;-61
2021/09/21 06:46:46;;;;;;;7.35;3.20;;;;;;;22.73;40.41;102615.50;4996989;28;20023;-60
2021/09/21 06:49:11;;;;;;;8.40;3.50;;;;;;;22.74;40.29;102623.56;4996480;28;20030;-61
2021/09/21 06:51:37;;;;;;;10.93;3.30;;;;;;;22.81;39.21;102618.31;4996870;28;20026;-62
2021/09/21 06:54:02;;;;;;;10.40;3.20;;;;;;;22.93;38.97;102615.09;4996221;28;20094;-60
2021/09/21 06:56:28;;;;;;;7.20;3.15;;;;;;;23.05;39.15;102626.56;4995712;28;20109;-63
2021/09/21 06:58:55;;;;;;;7.97;3.72;;;;;;;23.09;39.46;102623.31;4996714;28;20057;-62
2021/09/21 07:01:20;;;;;;;5.05;2.92;;;;;;;23.22;39.44;102631.06;4997925;28;20049;-62
2021/09/21 07:03:45;;;;;;;7.78;3.17;;;;;;;23.32;39.63;102623.53;5014458;28;20100;-62
2021/09/21 07:06:11;;;;;;;7.90;3.40;;;;;;;23.47;38.65;102638.31;5015014;28;20041;-60
2021/09/21 07:08:36;;;;;;;6.07;2.72;;;;;;;23.62;38.56;102647.53;5016100;28;20079;-60
2021/09/21 07:11:02;;;;;;;5.90;3.28;;;;;;;23.70;38.36;102647.53;5015829;28;20140;-61
2021/09/21 07:13:27;;;;;;;5.95;2.85;;;;;;;23.84;38.71;102642.44;5015867;28;20387;-62
2021/09/21 07:15:53;;;;;;;5.72;3.30;;;;;;;23.91;38.23;102647.03;5014655;28;20056;-61
2021/09/21 07:18:18;;;;;;;7.85;3.42;;;;;;;24.01;38.96;102644.97;4998274;28;20022;-61
2021/09/21 07:20:43;;;;;;;7.70;3.67;;;;;;;24.22;38.07;102653.53;4996223;28;20022;-62
2021/09/21 07:23:09;;;;;;;6.55;3.17;;;;;;;24.35;37.82;102653.00;4995250;28;20157;-61
2021/09/21 07:25:34;;;;;;;8.35;2.85;;;;;;;24.53;37.75;102661.84;4996068;28;20481;-61
2021/09/21 07:28:02;;;;;;;5.80;2.95;;;;;;;24.77;37.71;102667.25;5011938;28;20034;-61
2021/09/21 07:30:31;;;;;;;6.32;3.25;;;;;;;24.96;37.17;102676.13;4996094;28;20026;-61
2021/09/21 07:32:57;;;;;;;8.20;3.22;;;;;;;25.18;37.33;102672.59;4995718;28;20372;-61
2021/09/21 07:35:22;;;;;;;4.30;3.35;;;;;;;25.34;36.89;102672.50;4995979;28;20026;-61
2021/09/21 07:37:47;;;;;;;3.90;2.80;;;;;;;25.49;37.06;102673.44;4996308;28;20035;-61
2021/09/21 07:40:13;;;;;;;8.55;3.55;;;;;;;25.64;36.53;102671.63;4995894;28;20534;-62
2021/09/21 07:42:39;;;;;;;4.18;2.40;;;;;;;25.83;36.58;102676.59;4995627;28;20022;-61
2021/09/21 07:45:06;;;;;;;6.95;3.67;;;;;;;26.00;36.62;102672.69;4995660;28;20035;-62
2021/09/21 07:47:32;;;;;;;8.80;3.22;;;;;;;26.19;36.18;102673.22;4995336;28;20037;-62
2021/09/21 07:49:59;;;;;;;4.85;2.75;;;;;;;26.36;36.00;102675.63;4995291;28;20399;-62
2021/09/21 07:52:24;;;;;;;4.88;2.90;;;;;;;26.54;35.82;102676.13;5010243;28;20029;-61
2021/09/21 07:54:50;;;;;;;6.20;3.42;;;;;;;26.70;35.41;102683.31;4978095;28;20081;-62
2021/09/21 07:57:15;;;;;;;3.88;2.67;;;;;;;26.80;35.66;102674.84;4975087;28;20388;-62
2021/09/21 07:59:42;;;;;;;9.55;2.85;;;;;;;26.84;34.94;102679.75;4973268;28;20193;-62
2021/09/21 08:02:11;;;;;;;8.65;3.40;;;;;;;26.97;35.14;102687.31;4983137;28;20435;-62
2021/09/21 08:04:38;;;;;;;5.65;3.00;;;;;;;27.01;35.08;102684.00;5013799;28;20037;-62
2021/09/21 08:07:04;;;;;;;4.20;2.60;;;;;;;27.03;34.49;102692.06;5014154;28;20040;-62
2021/09/21 08:09:30;;;;;;;7.18;3.40;;;;;;;27.14;34.42;102700.66;4997357;28;20497;-61
2021/09/21 08:11:55;;;;;;;7.07;2.92;;;;;;;27.27;34.70;102701.91;4992090;28;20029;-61
2021/09/21 08:14:20;;;;;;;7.60;3.00;;;;;;;27.44;34.48;102697.91;4975441;28;20030;-62
2021/09/21 08:16:46;;;;;;;5.95;3.03;;;;;;;27.53;33.97;102700.31;4976562;28;20360;-61
2021/09/21 08:19:11;;;;;;;6.10;3.20;;;;;;;27.65;33.73;102690.50;5014164;28;20386;-62
2021/09/21 08:21:37;;;;;;;7.60;3.10;;;;;;;27.83;33.18;102695.56;5014027;28;20026;-61
2021/09/21 08:24:02;;;;;;;4.25;3.03;;;;;;;27.99;34.20;102700.78;5014077;28;20394;-61
2021/09/21 08:26:28;;;;;;;9.70;3.15;;;;;;;28.14;33.94;102698.81;5013034;28;20033;-61
2021/09/21 08:28:53;;;;;;;7.95;2.88;;;;;;;28.27;33.57;102698.94;5013929;28;20414;-61
2021/09/21 08:31:18;;;;;;;4.90;2.63;;;;;;;28.42;32.93;102717.28;5013997;28;20072;-61
2021/09/21 08:33:44;;;;;;;10.77;4.07;;;;;;;28.49;32.35;102710.75;5014001;28;20089;-61
2021/09/21 08:36:09;;;;;;;4.97;3.08;;;;;;;28.63;31.90;102711.75;5014205;28;20060;-62
2021/09/21 08:38:35;;;;;;;5.90;3.05;;;;;;;28.74;32.97;102728.59;5014093;28;20521;-62
2021/09/21 08:41:00;;;;;;;4.18;2.60;;;;;;;28.81;32.74;102717.59;5013872;28;20430;-61
2021/09/21 08:43:25;;;;;;;4.63;2.95;;;;;;;28.92;32.22;102711.50;5005964;28;20069;-62
2021/09/21 08:45:51;;;;;;;4.35;3.15;;;;;;;29.05;31.62;102711.56;4993860;28;20109;-59
2021/09/21 08:48:16;;;;;;;6.57;2.88;;;;;;;29.17;31.97;102718.22;5009910;28;20101;-59
2021/09/21 08:50:43;;;;;;;5.68;2.78;;;;;;;29.31;30.90;102711.69;4994206;28;20390;-60
2021/09/21 08:53:08;;;;;;;6.13;2.75;;;;;;;29.47;31.66;102716.00;4994340;28;20030;-60
2021/09/21 08:55:33;;;;;;;4.40;2.72;;;;;;;29.62;31.12;102722.19;4994260;28;20122;-59
2021/09/21 08:57:59;;;;;;;5.40;2.72;;;;;;;29.74;30.86;102722.44;4994222;28;20496;-60
2021/09/21 09:00:28;;;;;;;3.28;2.22;;;;;;;29.82;30.52;102734.16;4993020;28;20388;-59
2021/09/21 09:03:08;;;;;;;2.25;1.98;;;;;;;29.89;30.33;102737.81;5009100;28;20096;-60
2021/09/21 09:05:46;;;;;;;4.68;2.53;;;;;;;30.00;29.66;102741.88;4996010;28;20082;-61
2021/09/21 09:08:12;;;;;;;3.55;2.28;;;;;;;30.02;29.83;102728.66;4994054;28;20457;-60
2021/09/21 09:10:38;;;;;;;6.60;3.00;;;;;;;30.13;29.83;102732.72;4994714;28;20065;-60
2021/09/21 09:13:03;;;;;;;4.72;2.90;;;;;;;30.27;29.32;102740.81;4997031;28;20026;-60
2021/09/21 09:15:29;;;;;;;3.53;2.65;;;;;;;30.34;29.05;102738.91;4997828;28;20177;-59
2021/09/21 09:17:56;;;;;;;4.68;2.70;;;;;;;30.35;28.93;102737.81;5011744;28;20025;-59
2021/09/21 09:20:39;;;;;;;2.72;2.35;;;;;;;30.40;28.85;102732.53;5017388;28;20104;-59
2021/09/21 09:23:08;;;;;;;3.33;2.40;;;;;;;30.36;28.94;102741.44;5016078;28;20394;-59
2021/09/21 09:26:00;;;;;;;4.22;2.25;;;;;;;30.46;28.77;102734.44;5017479;28;20027;-60
2021/09/21 09:28:27;;;;;;;5.38;2.55;;;;;;;30.52;28.42;102724.44;5015769;28;20038;-60
2021/09/21 09:30:54;;;;;;;6.10;2.70;;;;;;;30.80;28.26;102738.00;5017735;28;20021;-61
2021/09/21 09:33:20;;;;;;;8.57;2.50;;;;;;;31.16;27.73;102737.53;5017228;28;20049;-60
2021/09/21 09:35:47;;;;;;;3.45;2.08;;;;;;;31.81;26.98;102736.34;5010929;28;20026;-60
2021/09/21 09:38:15;;;;;;;4.03;1.98;;;;;;;33.35;25.49;102746.44;4984134;28;20023;-60
2021/09/21 09:40:49;;;;;;;2.60;1.98;;;;;;;33.51;25.38;102745.78;4977786;28;20468;-60
2021/09/21 09:43:16;;;;;;;4.25;1.98;;;;;;;33.12;25.66;102729.63;4990866;28;20024;-57
2021/09/21 09:45:44;;;;;;;4.80;2.47;;;;;;;32.96;26.66;102724.66;5016652;28;20026;-56
2021/09/21 09:48:12;;;;;;;4.45;1.90;;;;;;;32.92;25.90;102718.72;5016778;28;20017;-57
2021/09/21 09:50:42;;;;;;;91.95;8.13;;;;;;;32.95;25.40;102718.25;5016429;28;20025;-56
2021/09/21 09:53:23;;;;;;;2.58;1.88;;;;;;;33.07;25.66;102721.16;5016589;28;20478;-56
2021/09/21 09:55:53;;;;;;;3.28;1.80;;;;;;;33.17;25.38;102721.44;5031862;28;20114;-56
2021/09/21 09:58:20;;;;;;;4.88;2.03;;;;;;;33.32;24.65;102724.66;5016735;28;20076;-56
2021/09/21 10:00:46;;;;;;;3.97;1.80;;;;;;;33.38;25.21;102716.25;5015192;28;20050;-56
2021/09/21 10:03:11;;;;;;;3.00;2.08;;;;;;;33.49;25.16;102720.16;4999480;28;20076;-58
2021/09/21 10:05:39;;;;;;;3.47;2.35;;;;;;;33.60;24.66;102727.72;4989424;28;20463;-58
2021/09/21 10:08:06;;;;;;;3.22;2.20;;;;;;;33.68;24.07;102723.75;4988905;28;20395;-59
2021/09/21 10:10:32;;;;;;;2.15;1.95;;;;;;;33.72;24.44;102736.97;4985323;28;20018;-60
2021/09/21 10:12:59;;;;;;;3.55;1.60;;;;;;;33.67;24.01;102731.25;4985866;28;20057;-60
2021/09/21 10:15:27;;;;;;;3.78;2.03;;;;;;;33.63;23.61;102735.59;4986146;28;20033;-59
2021/09/21 10:17:55;;;;;;;2.83;2.10;;;;;;;33.65;23.51;102739.00;4982338;28;20113;-60
2021/09/21 10:20:22;;;;;;;5.63;2.00;;;;;;;33.72;24.24;102731.41;4977102;28;20113;-58
2021/09/21 10:22:53;;;;;;;4.47;1.95;;;;;;;33.82;22.87;102737.25;5008848;28;20364;-59
2021/09/21 10:25:26;;;;;;;3.38;2.13;;;;;;;34.07;22.89;102739.84;5015413;28;20022;-59
2021/09/21 10:27:52;;;;;;;3.85;2.10;;;;;;;34.32;23.18;102734.09;5015924;28;20044;-60
2021/09/21 10:30:21;;;;;;;2.65;1.92;;;;;;;34.34;23.86;102734.72;4985765;28;20034;-60
2021/09/21 10:32:49;;;;;;;3.78;1.73;;;;;;;34.35;23.62;102730.81;4976969;28;20482;-60
2021/09/21 10:35:17;;;;;;;2.33;1.70;;;;;;;34.37;23.13;102748.97;4977115;28;20037;-60
2021/09/21 10:37:43;;;;;;;2.85;2.38;;;;;;;34.48;22.48;102752.84;5005154;28;20556;-60
2021/09/21 10:40:09;;;;;;;1.95;1.73;;;;;;;34.54;22.72;102746.31;5015222;28;20030;-60
2021/09/21 10:42:36;;;;;;;3.90;1.55;;;;;;;34.65;22.82;102728.78;5015989;28;20030;-61
2021/09/21 10:45:04;;;;;;;2.75;1.75;;;;;;;34.86;21.91;102733.75;5014333;28;20499;-60
2021/09/21 10:47:39;;;;;;;3.08;2.00;;;;;;;34.97;22.96;102746.81;5015589;28;20028;-60
2021/09/21 10:50:16;;;;;;;3.80;1.88;;;;;;;35.02;21.82;102737.72;5015849;28;20040;-61
2021/09/21 10:52:42;;;;;;;2.90;2.20;;;;;;;35.03;22.68;102729.13;5015382;28;20022;-61
2021/09/21 10:55:12;;;;;;;2.38;2.13;;;;;;;35.07;22.77;102721.13;5015440;28;20024;-61
2021/09/21 10:57:40;;;;;;;4.47;2.28;;;;;;;35.17;21.88;102729.72;5031209;28;20030;-60
2021/09/21 11:00:20;;;;;;;3.65;2.20;;;;;;;35.27;21.52;102737.44;5015046;28;20112;-60
2021/09/21 11:02:51;;;;;;;4.30;2.28;;;;;;;35.38;21.85;102720.66;4991123;28;20491;-60
2021/09/21 11:05:19;;;;;;;1.93;1.60;;;;;;;35.50;22.39;102718.69;4995948;28;20042;-59
2021/09/21 11:07:51;;;;;;;2.58;1.80;;;;;;;35.68;21.87;102730.75;4995835;28;20372;-61
2021/09/21 11:10:20;;;;;;;2.17;1.70;;;;;;;35.77;21.79;102735.66;4995498;28;20050;-60
2021/09/21 11:12:47;;;;;;;2.38;1.75;;;;;;;35.88;21.98;102731.97;4994405;28;20101;-60
2021/09/21 11:15:13;;;;;;;4.00;2.17;;;;;;;35.98;22.07;102732.16;4995524;28;20061;-60
2021/09/21 11:17:39;;;;;;;2.55;2.20;;;;;;;35.98;21.90;102732.16;5010252;28;20538;-60
2021/09/21 11:20:05;;;;;;;3.17;2.10;;;;;;;35.93;21.54;102726.47;4995318;28;20494;-60
2021/09/21 11:22:30;;;;;;;5.22;2.20;;;;;;;35.95;21.54;102724.28;4995034;28;20030;-60
2021/09/21 11:25:00;;;;;;;3.60;2.13;;;;;;;36.09;21.87;102727.63;4994985;28;20433;-60
2021/09/21 11:27:27;;;;;;;2.17;1.90;;;;;;;36.31;21.66;102722.13;4995356;28;20524;-60
2021/09/21 11:29:59;;;;;;;4.75;2.05;;;;;;;36.49;21.41;102727.44;4995140;28;20030;-61
2021/09/21 11:32:25;;;;;;;4.07;2.30;;;;;;;36.61;21.48;102714.25;4994969;28;20033;-60
2021/09/21 11:34:58;;;;;;;3.60;2.20;;;;;;;36.55;21.25;102732.03;4993707;28;20030;-60
2021/09/21 11:37:24;;;;;;;3.38;2.22;;;;;;;36.38;21.55;102725.59;4994983;28;20037;-60